Yuanping, China
Current Conditions -  °F | °C
As of 5:00 PM on Sunday 21 Dec 2014 (Local Time) from ZBYN Reporting Station
Clear Clear  
Wind Chill: 22°   Ceiling: Unl
Heat Index: 30°   Visibility: 6mi
Dew Point: -6°   Wind: 9mph
Humidity: 21%   Direction: 230°SW
Pressure: 30.27"   Gusts: NA
Location:  38.73°N, 112.72°E
Report Text: ZBYN 210900Z 23004MPS 190V270 CAVOK M01/M21 Q1025 BECMG TL102029005MPS
Loading
Personal Weather Stations






























Interactive Weather Map New forecast layout! Learn more

10-Day Weather Forecast

Advertisements
Track Severe Weather on mobile